Time;durP1;ratioP1;P1;durP2;ratioP2;P2;SDS_P1;SDS_P2;PMS_P1;PMS_P2;Temp;Humidity;BMP_temperature;BMP_pressure;BME280_temperature;BME280_humidity;BME280_pressure;Samples;Min_cycle;Max_cycle;Signal;HPM_P1;HPM_P2
2023/11/24 00:00:47;;;;;;;;;;;;;;;3.59;100.00;99686.75;5011262;28;19925;-87
2023/11/24 00:03:15;;;;;;;;;;;;;;;3.69;100.00;99689.50;5010576;28;19934;-87
2023/11/24 00:05:48;;;;;;;;;;;;;;;3.74;100.00;99697.59;5009418;28;19930;-88
2023/11/24 00:08:17;;;;;;;;;;;;;;;3.72;100.00;99702.41;5012464;28;19926;-87
2023/11/24 00:10:45;;;;;;;;;;;;;;;3.70;100.00;99706.44;5008844;28;19933;-88
2023/11/24 00:13:13;;;;;;;;;;;;;;;3.66;100.00;99699.94;5004190;28;20298;-87
2023/11/24 00:15:42;;;;;;;;;;;;;;;3.63;100.00;99695.09;5009315;28;19929;-87
2023/11/24 00:18:14;;;;;;;;;;;;;;;3.62;100.00;99696.97;5010515;28;19925;-87
2023/11/24 00:20:42;;;;;;;;;;;;;;;3.63;100.00;99693.19;5007556;28;19966;-87
2023/11/24 00:23:16;;;;;;;;;;;;;;;3.58;100.00;99698.56;5004674;28;19936;-87
2023/11/24 00:25:49;;;;;;;;;;;;;;;3.52;100.00;99688.81;5003516;28;19937;-87
2023/11/24 00:28:22;;;;;;;;;;;;;;;3.46;100.00;99685.28;5007925;28;20514;-87
2023/11/24 00:30:50;;;;;;;;;;;;;;;3.52;100.00;99681.56;5014923;28;20095;-87
2023/11/24 00:33:20;;;;;;;;;;;;;;;3.60;100.00;99690.22;5009721;28;19925;-87
2023/11/24 00:35:49;;;;;;;;;;;;;;;3.71;100.00;99690.03;5012425;28;19933;-87
2023/11/24 00:38:19;;;;;;;;;;;;;;;3.71;100.00;99690.03;5006749;28;19952;-86
2023/11/24 00:40:52;;;;;;;;;;;;;;;3.68;100.00;99690.56;5006582;28;19929;-87
2023/11/24 00:43:20;;;;;;;;;;;;;;;3.71;100.00;99692.72;5007994;28;20386;-87
2023/11/24 00:45:48;;;;;;;;;;;;;;;3.68;100.00;99705.91;5011786;28;19925;-87
2023/11/24 00:48:16;;;;;;;;;;;;;;;3.63;100.00;99706.66;5011930;28;19925;-87
2023/11/24 00:50:44;;;;;;;;;;;;;;;3.52;100.00;99699.56;5009549;28;19925;-87
2023/11/24 00:53:12;;;;;;;;;;;;;;;3.46;100.00;99695.25;5009373;28;19933;-87
2023/11/24 00:55:41;;;;;;;;;;;;;;;3.42;100.00;99694.13;5025616;28;19926;-87
2023/11/24 00:58:10;;;;;;;;;;;;;;;3.46;100.00;99703.31;4999163;28;20602;-88
2023/11/24 01:00:38;;;;;;;;;;;;;;;3.44;100.00;99708.13;5026444;28;19925;-87
2023/11/24 01:03:11;;;;;;;;;;;;;;;3.42;100.00;99703.00;5010685;28;19937;-87
2023/11/24 01:05:39;;;;;;;;;;;;;;;3.33;100.00;99693.75;5012982;28;20704;-87
2023/11/24 01:08:12;;;;;;;;;;;;;;;3.27;100.00;99702.88;5007692;28;19934;-87
2023/11/24 01:10:42;;;;;;;;;;;;;;;3.25;100.00;99699.63;5005351;28;19953;-87
2023/11/24 01:13:10;;;;;;;;;;;;;;;3.23;100.00;99689.94;5010031;28;19926;-87
2023/11/24 01:15:38;;;;;;;;;;;;;;;3.18;100.00;99675.66;5007482;28;19956;-87
2023/11/24 01:18:06;;;;;;;;;;;;;;;3.20;100.00;99671.63;5011921;28;20298;-87
2023/11/24 01:20:34;;;;;;;;;;;;;;;3.18;100.00;99668.38;5009115;28;19932;-87
2023/11/24 01:23:04;;;;;;;;;;;;;;;3.26;100.00;99664.44;5007081;28;20390;-87
2023/11/24 01:25:32;;;;;;;;;;;;;;;3.23;100.00;99656.84;5010442;28;20301;-87
2023/11/24 01:28:06;;;;;;;;;;;;;;;3.28;100.00;99664.16;5011953;28;19925;-87
2023/11/24 01:30:39;;;;;;;;;;;;;;;3.29;100.00;99660.41;5009344;28;19929;-87
2023/11/24 01:33:07;;;;;;;;;;;;;;;3.27;100.00;99652.56;5007016;28;19932;-87
2023/11/24 01:35:35;;;;;;;;;;;;;;;3.26;100.00;99655.53;5004140;28;19926;-87
2023/11/24 01:38:03;;;;;;;;;;;;;;;3.30;100.00;99657.47;5001453;28;19930;-87
2023/11/24 01:40:37;;;;;;;;;;;;;;;3.20;100.00;99662.75;5011276;28;19925;-86
2023/11/24 01:43:07;;;;;;;;;;;;;;;3.25;100.00;99668.19;5024002;28;19926;-86
2023/11/24 01:45:35;;;;;;;;;;;;;;;3.29;100.00;99673.88;5012722;28;19932;-87
2023/11/24 01:48:03;;;;;;;;;;;;;;;3.34;100.00;99663.97;5010327;28;19941;-87
2023/11/24 01:50:36;;;;;;;;;;;;;;;3.39;100.00;99680.13;5010444;28;19926;-86
2023/11/24 01:53:05;;;;;;;;;;;;;;;3.48;100.00;99672.41;5008808;28;19926;-87
2023/11/24 01:55:32;;;;;;;;;;;;;;;3.49;100.00;99678.56;5008413;28;20401;-87
2023/11/24 01:58:00;;;;;;;;;;;;;;;3.63;100.00;99677.06;5007519;28;19926;-87
2023/11/24 02:00:35;;;;;;;;;;;;;;;3.68;100.00;99676.31;5009191;28;20404;-87
2023/11/24 02:03:03;;;;;;;;;;;;;;;3.67;100.00;99674.66;5007597;28;20298;-87
2023/11/24 02:05:31;;;;;;;;;;;;;;;3.78;100.00;99673.66;5010966;28;19926;-87
2023/11/24 02:08:04;;;;;;;;;;;;;;;3.87;100.00;99679.38;5019184;28;19925;-87
2023/11/24 02:10:37;;;;;;;;;;;;;;;3.91;100.00;99680.50;5008111;28;19930;-87
2023/11/24 02:13:05;;;;;;;;;;;;;;;3.90;100.00;99674.28;5008786;28;19926;-87
2023/11/24 02:15:34;;;;;;;;;;;;;;;3.90;100.00;99660.03;5007591;28;19926;-87
2023/11/24 02:18:02;;;;;;;;;;;;;;;3.90;100.00;99666.19;5007357;28;19929;-86
2023/11/24 02:20:33;;;;;;;;;;;;;;;3.82;100.00;99660.50;5014572;28;19925;-87
2023/11/24 02:23:07;;;;;;;;;;;;;;;3.72;100.00;99653.19;5002396;28;19929;-86
2023/11/24 02:25:40;;;;;;;;;;;;;;;3.62;100.00;99651.25;5008673;28;19933;-87
2023/11/24 02:28:13;;;;;;;;;;;;;;;3.51;100.00;99636.09;5007474;28;19937;-87
2023/11/24 02:30:41;;;;;;;;;;;;;;;3.50;100.00;99637.16;4995785;28;19933;-87
2023/11/24 02:33:09;;;;;;;;;;;;;;;3.47;100.00;99643.88;5009324;28;20390;-87
2023/11/24 02:35:37;;;;;;;;;;;;;;;3.45;100.00;99635.22;5008757;28;20362;-87
2023/11/24 02:38:06;;;;;;;;;;;;;;;3.42;100.00;99638.44;5004940;28;19930;-86
2023/11/24 02:40:35;;;;;;;;;;;;;;;3.45;100.00;99645.19;5006201;28;19937;-87
2023/11/24 02:43:09;;;;;;;;;;;;;;;3.44;100.00;99651.63;5005993;28;20509;-87
2023/11/24 02:45:37;;;;;;;;;;;;;;;3.40;100.00;99659.44;5015888;28;19926;-87
2023/11/24 02:48:10;;;;;;;;;;;;;;;3.37;100.00;99651.84;5007845;28;19926;-87
2023/11/24 02:50:43;;;;;;;;;;;;;;;3.34;100.00;99661.28;5008619;28;19952;-87
2023/11/24 02:53:16;;;;;;;;;;;;;;;3.29;100.00;99660.41;5007603;28;19926;-86
2023/11/24 02:55:50;;;;;;;;;;;;;;;3.32;100.00;99663.38;5006590;28;19925;-86
2023/11/24 02:58:24;;;;;;;;;;;;;;;3.31;100.00;99663.66;5003417;28;19930;-86
2023/11/24 03:00:53;;;;;;;;;;;;;;;3.35;100.00;99673.63;5003636;28;20060;-86
2023/11/24 03:03:26;;;;;;;;;;;;;;;3.34;100.00;99665.81;5018486;28;20382;-86
2023/11/24 03:05:55;;;;;;;;;;;;;;;3.23;100.00;99667.59;5013516;28;20267;-86
2023/11/24 03:08:29;;;;;;;;;;;;;;;3.15;100.00;99662.69;5011448;28;19931;-86
2023/11/24 03:10:58;;;;;;;;;;;;;;;3.07;100.00;99669.38;5011289;28;19926;-87
2023/11/24 03:13:31;;;;;;;;;;;;;;;3.01;100.00;99660.44;5008487;28;19937;-86
2023/11/24 03:15:59;;;;;;;;;;;;;;;3.03;100.00;99652.13;5000282;28;19926;-86
2023/11/24 03:18:27;;;;;;;;;;;;;;;3.01;100.00;99660.44;5009041;28;20292;-86
2023/11/24 03:21:00;;;;;;;;;;;;;;;2.94;100.00;99649.09;5001778;28;20397;-87
2023/11/24 03:23:33;;;;;;;;;;;;;;;2.89;100.00;99654.41;5003133;28;20335;-86
2023/11/24 03:26:02;;;;;;;;;;;;;;;2.88;100.00;99650.91;5019680;28;19926;-87
2023/11/24 03:28:35;;;;;;;;;;;;;;;2.82;100.00;99638.50;5006178;28;19925;-86
2023/11/24 03:31:03;;;;;;;;;;;;;;;2.86;100.00;99639.59;5012317;28;19956;-86
2023/11/24 03:33:36;;;;;;;;;;;;;;;2.86;100.00;99631.53;5012145;28;19925;-86
2023/11/24 03:36:04;;;;;;;;;;;;;;;2.95;100.00;99636.47;5008706;28;19937;-86
2023/11/24 03:38:32;;;;;;;;;;;;;;;2.99;100.00;99616.88;4998788;28;19933;-87
2023/11/24 03:41:01;;;;;;;;;;;;;;;3.04;100.00;99621.50;5020778;28;19930;-86
2023/11/24 03:43:30;;;;;;;;;;;;;;;3.10;100.00;99627.72;5020829;28;19937;-87
2023/11/24 03:46:03;;;;;;;;;;;;;;;3.10;100.00;99630.41;5010743;28;19929;-86
2023/11/24 03:48:31;;;;;;;;;;;;;;;3.15;100.00;99620.50;5008556;28;19955;-86
2023/11/24 03:50:59;;;;;;;;;;;;;;;3.15;100.00;99620.50;5000214;28;19925;-87
2023/11/24 03:53:32;;;;;;;;;;;;;;;3.19;100.00;99610.03;5012873;28;19925;-86
2023/11/24 03:56:01;;;;;;;;;;;;;;;3.25;100.00;99610.91;5013034;28;19926;-86
2023/11/24 03:58:30;;;;;;;;;;;;;;;3.15;100.00;99611.59;5011145;28;19933;-86
2023/11/24 04:00:58;;;;;;;;;;;;;;;3.13;100.00;99614.56;5012438;28;19932;-86
2023/11/24 04:03:26;;;;;;;;;;;;;;;3.08;100.00;99611.03;5010704;28;20390;-86
2023/11/24 04:05:59;;;;;;;;;;;;;;;3.09;100.00;99610.75;5009135;28;19997;-86
2023/11/24 04:08:28;;;;;;;;;;;;;;;3.06;100.00;99609.41;5005631;28;19930;-87
2023/11/24 04:11:02;;;;;;;;;;;;;;;3.06;100.00;99627.41;5013142;28;19929;-86
2023/11/24 04:13:37;;;;;;;;;;;;;;;3.05;100.00;99623.09;5008762;28;19929;-86
2023/11/24 04:16:09;;;;;;;;;;;;;;;3.06;100.00;99627.41;5010024;28;20307;-86
2023/11/24 04:18:39;;;;;;;;;;;;;;;3.07;100.00;99618.28;5012282;28;19926;-85
2023/11/24 04:21:07;;;;;;;;;;;;;;;3.08;100.00;99617.22;5005289;28;19933;-87
2023/11/24 04:23:40;;;;;;;;;;;;;;;3.07;100.00;99612.91;5006167;28;19925;-86
2023/11/24 04:26:07;;;;;;;;;;;;;;;3.09;100.00;99612.66;5009362;28;19932;-86
2023/11/24 04:28:42;;;;;;;;;;;;;;;3.04;100.00;99616.13;5009458;28;19929;-86
2023/11/24 04:31:10;;;;;;;;;;;;;;;3.01;100.00;99614.75;5008693;28;19926;-86
2023/11/24 04:33:43;;;;;;;;;;;;;;;2.98;100.00;99607.16;5003150;28;19929;-86
2023/11/24 04:36:17;;;;;;;;;;;;;;;2.94;100.00;99598.03;5006232;28;20302;-86
2023/11/24 04:38:45;;;;;;;;;;;;;;;2.96;100.00;99605.84;5004185;28;20290;-86
2023/11/24 04:41:18;;;;;;;;;;;;;;;2.98;100.00;99617.13;5001088;28;19926;-86
2023/11/24 04:43:52;;;;;;;;;;;;;;;2.99;100.00;99603.44;5004004;28;19933;-86
2023/11/24 04:46:20;;;;;;;;;;;;;;;2.93;100.00;99615.22;5009758;28;19925;-86
2023/11/24 04:48:53;;;;;;;;;;;;;;;2.88;100.00;99624.03;5006490;28;20428;-86
2023/11/24 04:51:26;;;;;;;;;;;;;;;2.80;100.00;99612.94;5009446;28;19937;-86
2023/11/24 04:53:57;;;;;;;;;;;;;;;2.76;100.00;99603.75;4997865;28;19933;-86
2023/11/24 04:56:26;;;;;;;;;;;;;;;2.78;100.00;99602.44;5004945;28;19930;-86
2023/11/24 04:59:00;;;;;;;;;;;;;;;2.78;100.00;99604.34;5009445;28;20390;-86
2023/11/24 05:01:28;;;;;;;;;;;;;;;2.78;100.00;99596.28;5020464;28;19925;-86
2023/11/24 05:03:59;;;;;;;;;;;;;;;2.75;100.00;99599.44;5007064;28;19930;-86
2023/11/24 05:06:26;;;;;;;;;;;;;;;2.73;100.00;99594.31;5004120;28;19933;-87
2023/11/24 05:08:55;;;;;;;;;;;;;;;2.76;100.00;99593.81;5010514;28;19937;-86
2023/11/24 05:11:22;;;;;;;;;;;;;;;2.79;100.00;99592.50;5009944;28;19947;-87
2023/11/24 05:13:50;;;;;;;;;;;;;;;2.75;100.00;99597.59;5007016;28;19937;-86
2023/11/24 05:16:25;;;;;;;;;;;;;;;2.71;100.00;99581.16;5003600;28;19955;-86
2023/11/24 05:18:54;;;;;;;;;;;;;;;2.70;100.00;99578.72;5017361;28;19925;-86
2023/11/24 05:21:27;;;;;;;;;;;;;;;2.71;100.00;99586.53;5011540;28;19929;-86
2023/11/24 05:23:55;;;;;;;;;;;;;;;2.65;100.00;99578.66;4998074;28;19937;-86
2023/11/24 05:26:23;;;;;;;;;;;;;;;2.59;100.00;99572.44;5009595;28;19929;-86
2023/11/24 05:28:51;;;;;;;;;;;;;;;2.55;100.00;99585.59;5008086;28;19932;-87
2023/11/24 05:31:25;;;;;;;;;;;;;;;2.51;100.00;99589.84;5006875;28;19926;-86
2023/11/24 05:33:54;;;;;;;;;;;;;;;2.45;100.00;99587.34;5004076;28;20306;-86
2023/11/24 05:36:27;;;;;;;;;;;;;;;2.50;100.00;99582.00;5004322;28;19926;-86
2023/11/24 05:39:00;;;;;;;;;;;;;;;2.51;100.00;99578.28;5005379;28;20302;-86
2023/11/24 05:41:33;;;;;;;;;;;;;;;2.53;100.00;99568.09;5007128;28;19932;-86
2023/11/24 05:44:01;;;;;;;;;;;;;;;2.61;100.00;99559.59;5003431;28;19941;-86
2023/11/24 05:46:30;;;;;;;;;;;;;;;2.58;100.00;99565.44;5008906;28;19925;-86
2023/11/24 05:48:59;;;;;;;;;;;;;;;2.55;100.00;99576.69;5010813;28;19926;-86
2023/11/24 05:51:32;;;;;;;;;;;;;;;2.55;100.00;99566.78;5007047;28;19932;-87
2023/11/24 05:54:00;;;;;;;;;;;;;;;2.54;100.00;99565.16;5005726;28;20401;-87
2023/11/24 05:56:28;;;;;;;;;;;;;;;2.47;100.00;99564.56;5010897;28;20274;-86
2023/11/24 05:59:01;;;;;;;;;;;;;;;2.38;100.00;99564.19;4997108;28;19926;-86
2023/11/24 06:01:36;;;;;;;;;;;;;;;2.41;100.00;99570.13;5008564;28;20305;-87
2023/11/24 06:04:09;;;;;;;;;;;;;;;2.36;100.00;99563.63;5013301;28;20277;-86
2023/11/24 06:06:37;;;;;;;;;;;;;;;2.45;100.00;99547.88;5009296;28;19929;-87
2023/11/24 06:09:10;;;;;;;;;;;;;;;2.47;100.00;99552.97;5001148;28;19926;-87
2023/11/24 06:11:38;;;;;;;;;;;;;;;2.44;100.00;99545.44;5008152;28;19948;-87
2023/11/24 06:14:07;;;;;;;;;;;;;;;2.38;100.00;99550.75;5006710;28;20824;-86
2023/11/24 06:16:36;;;;;;;;;;;;;;;2.30;100.00;99537.00;5018734;28;19926;-86
2023/11/24 06:19:04;;;;;;;;;;;;;;;2.23;100.00;99533.69;5010604;28;19997;-86
2023/11/24 06:21:32;;;;;;;;;;;;;;;2.17;100.00;99533.63;5008748;28;19925;-86
2023/11/24 06:24:05;;;;;;;;;;;;;;;2.18;100.00;99531.75;5003135;28;20303;-87
2023/11/24 06:26:39;;;;;;;;;;;;;;;2.12;100.00;99535.47;5004881;28;19941;-87
2023/11/24 06:29:07;;;;;;;;;;;;;;;2.12;100.00;99530.09;5013630;28;19933;-86
2023/11/24 06:31:36;;;;;;;;;;;;;;;2.12;100.00;99535.47;5000348;28;19933;-87
2023/11/24 06:34:09;;;;;;;;;;;;;;;2.13;100.00;99534.41;5008430;28;19925;-87
2023/11/24 06:36:42;;;;;;;;;;;;;;;2.07;100.00;99522.78;5013425;28;19926;-86
2023/11/24 06:39:11;;;;;;;;;;;;;;;2.03;100.00;99519.81;5005726;28;19925;-86
2023/11/24 06:41:44;;;;;;;;;;;;;;;2.04;100.00;99534.84;5008863;28;20716;-86
2023/11/24 06:44:12;;;;;;;;;;;;;;;2.03;100.00;99530.53;5014904;28;19949;-86
2023/11/24 06:46:41;;;;;;;;;;;;;;;2.03;100.00;99532.38;5009186;28;19925;-86
2023/11/24 06:49:09;;;;;;;;;;;;;;;1.99;100.00;99540.16;5013344;28;20405;-86
2023/11/24 06:51:46;;;;;;;;;;;;;;;1.89;100.00;99531.16;5024831;28;19933;-87
2023/11/24 06:54:18;;;;;;;;;;;;;;;1.87;100.00;99529.53;5003378;28;19929;-87
2023/11/24 06:56:48;;;;;;;;;;;;;;;1.87;100.00;99526.06;5013421;28;20413;-87
2023/11/24 06:59:17;;;;;;;;;;;;;;;1.94;100.00;99529.34;5012783;28;19929;-87
2023/11/24 07:01:46;;;;;;;;;;;;;;;2.01;100.00;99519.22;5013460;28;19929;-87
2023/11/24 07:04:14;;;;;;;;;;;;;;;2.06;100.00;99526.53;5004451;28;20017;-87
2023/11/24 07:06:47;;;;;;;;;;;;;;;2.10;100.00;99532.19;5003840;28;19935;-87
2023/11/24 07:09:21;;;;;;;;;;;;;;;2.10;100.00;99533.03;5009910;28;19933;-87
2023/11/24 07:11:53;;;;;;;;;;;;;;;2.19;100.00;99533.38;5010425;28;19925;-87
2023/11/24 07:14:26;;;;;;;;;;;;;;;2.21;100.00;99539.31;5011002;28;20322;-87
2023/11/24 07:16:56;;;;;;;;;;;;;;;2.26;100.00;99538.56;5012128;28;19932;-86
2023/11/24 07:19:23;;;;;;;;;;;;;;;2.26;100.00;99539.34;5012090;28;20374;-87
2023/11/24 07:21:57;;;;;;;;;;;;;;;2.29;100.00;99535.34;5002982;28;19940;-88
2023/11/24 07:24:25;;;;;;;;;;;;;;;2.25;100.00;99540.44;5010259;28;19926;-87
2023/11/24 07:26:59;;;;;;;;;;;;;;;2.24;100.00;99533.44;5008327;28;19952;-86
2023/11/24 07:29:28;;;;;;;;;;;;;;;2.27;100.00;99532.13;5006313;28;19929;-86
2023/11/24 07:31:57;;;;;;;;;;;;;;;2.29;100.00;99532.66;5015244;28;19937;-87
2023/11/24 07:34:31;;;;;;;;;;;;;;;2.35;100.00;99534.38;5005860;28;19926;-88
2023/11/24 07:37:01;;;;;;;;;;;;;;;2.35;100.00;99534.38;5008313;28;20406;-87
2023/11/24 07:39:30;;;;;;;;;;;;;;;2.35;100.00;99534.38;5009280;28;19933;-87
2023/11/24 07:42:03;;;;;;;;;;;;;;;2.31;100.00;99536.72;5012476;28;19932;-87
2023/11/24 07:44:31;;;;;;;;;;;;;;;2.26;100.00;99530.50;5005436;28;20485;-87
2023/11/24 07:47:01;;;;;;;;;;;;;;;2.26;100.00;99527.81;5009565;28;20386;-86
2023/11/24 07:49:29;;;;;;;;;;;;;;;2.14;100.00;99523.41;5007345;28;19926;-86
2023/11/24 07:51:57;;;;;;;;;;;;;;;2.02;100.00;99517.38;5007980;28;19932;-87
2023/11/24 07:54:25;;;;;;;;;;;;;;;1.98;100.00;99508.22;5004396;28;19933;-87
2023/11/24 07:56:58;;;;;;;;;;;;;;;2.01;100.00;99503.13;5011215;28;19930;-87
2023/11/24 07:59:26;;;;;;;;;;;;;;;2.02;100.00;99509.31;5017211;28;19925;-87
2023/11/24 08:01:54;;;;;;;;;;;;;;;2.12;100.00;99501.38;5009236;28;19933;-86
2023/11/24 08:04:23;;;;;;;;;;;;;;;2.28;100.00;99498.81;5016083;28;19926;-86
2023/11/24 08:06:51;;;;;;;;;;;;;;;2.50;100.00;99498.75;5005404;28;19925;-86
2023/11/24 08:09:25;;;;;;;;;;;;;;;2.54;100.00;99514.13;5010599;28;19941;-85
2023/11/24 08:11:53;;;;;;;;;;;;;;;2.65;100.00;99506.13;5028577;28;19925;-82
2023/11/24 08:14:26;;;;;;;;;;;;;;;2.68;100.00;99513.69;5011045;28;19936;-83
2023/11/24 08:17:00;;;;;;;;;;;;;;;2.79;100.00;99501.97;5003947;28;20574;-84
2023/11/24 08:19:34;;;;;;;;;;;;;;;2.70;100.00;99490.06;5009888;28;19933;-85
2023/11/24 08:22:07;;;;;;;;;;;;;;;2.53;100.00;99484.84;5019646;28;20552;-83
2023/11/24 08:24:35;;;;;;;1.02;0.63;;;;;;;2.51;100.00;99486.97;5012577;28;19937;-83
2023/11/24 08:27:08;;;;;;;2.58;1.60;;;;;;;2.46;100.00;99489.59;5007124;28;20049;-83
2023/11/24 08:29:37;;;;;;;8.50;1.15;;;;;;;2.33;100.00;99478.22;5003609;28;20065;-82
2023/11/24 08:32:06;;;;;;;;;;;;;;;2.20;100.00;99476.75;4995703;28;20046;-83
2023/11/24 08:34:35;;;;;;;;;;;;;;;2.08;100.00;99473.41;5006651;28;19921;-85
2023/11/24 08:37:04;;;;;;;;;;;;;;;2.09;100.00;99466.19;5007244;28;19929;-83
2023/11/24 08:39:32;;;;;;;;;;;;;;;2.12;100.00;99457.63;4969844;28;19921;-83
2023/11/24 08:42:01;;;;;;;;;;;;;;;2.17;100.00;99460.38;5006705;28;19968;-84
2023/11/24 08:44:29;;;;;;;;;;;;;;;2.30;100.00;99457.25;5006191;28;19929;-82
2023/11/24 08:46:58;;;;;;;;;;;;;;;2.44;100.00;99449.56;5010021;28;19928;-85
2023/11/24 08:49:26;;;;;;;;;;;;;;;2.54;100.00;99459.59;5003857;28;19921;-84
2023/11/24 08:52:00;;;;;;;;;;;;;;;2.63;100.00;99460.75;4999983;28;20587;-83
2023/11/24 08:54:28;;;;;;;;;;;;;;;2.61;100.00;99454.81;5003852;28;19936;-84
2023/11/24 08:57:04;;;;;;;;;;;;;;;2.61;100.00;99454.00;5008990;28;19925;-82
2023/11/24 08:59:32;;;;;;;;;;;;;;;2.57;100.00;99452.88;5010668;28;19929;-83
2023/11/24 09:02:05;;;;;;;;;;;;;;;2.54;100.00;99459.59;5007506;28;19929;-84
2023/11/24 09:04:38;;;;;;;;;;;;;;;2.40;100.00;99448.47;5013493;28;19929;-83
2023/11/24 09:07:08;;;;;;;;;;;;;;;2.19;100.00;99439.44;5011504;28;19921;-84
2023/11/24 09:09:41;;;;;;;;;;;;;;;2.02;100.00;99424.25;5008096;28;19929;-83
2023/11/24 09:12:15;;;;;;;;;;;;;;;1.96;100.00;99422.59;5003633;28;19929;-84
2023/11/24 09:14:48;;;;;;;;;;;;;;;1.88;100.00;99423.06;5010170;28;19936;-83
2023/11/24 09:17:21;;;;;;;;;;;;;;;1.92;100.00;99409.94;5008764;28;19929;-84
2023/11/24 09:19:49;;;;;;;;;;;;;;;1.96;100.00;99402.97;5007500;28;20521;-83
2023/11/24 09:22:23;;;;;;;;;;;;;;;2.28;100.00;99407.56;5025078;28;19929;-84
2023/11/24 09:24:56;;;;;;;;;;;;;;;2.57;100.00;99396.50;5003716;28;20617;-84
2023/11/24 09:27:24;;;;;;;;;;;;;;;2.75;100.00;99398.78;5008940;28;20388;-84
2023/11/24 09:29:54;;;;;;;;;;;;;;;2.87;100.00;99396.69;5002118;28;20143;-85
2023/11/24 09:32:22;;;;;;;;;;;;;;;2.85;100.00;99393.44;4998779;28;19944;-83
2023/11/24 09:34:51;;;;;;;;;;;;;;;2.78;100.00;99392.09;4988370;28;21010;-82
2023/11/24 09:37:21;;;;;;;;;;;;;;;2.63;100.00;99393.59;5011264;28;19926;-81
2023/11/24 09:39:52;;;;;;;;;;;;;;;2.72;100.00;99386.66;4977335;28;19933;-82
2023/11/24 09:42:27;;;;;;;;;;;;;;;2.84;100.00;99375.69;5006835;28;20410;-83
2023/11/24 09:45:02;;;;;;;;;;;;;;;3.01;100.00;99358.59;5004597;28;19933;-82
2023/11/24 09:47:35;;;;;;;;;;;;;;;3.23;100.00;99350.34;5002940;28;20291;-82
2023/11/24 09:50:09;;;;;;;;;;;;;;;3.64;100.00;99346.97;5002861;28;19948;-84
2023/11/24 09:52:37;;;;;;;;;;;;;;;3.75;100.00;99356.66;5006988;28;20615;-83
2023/11/24 09:55:08;;;;;;;;;;;;;;;3.47;100.00;99366.03;5014306;28;19933;-82
2023/11/24 09:57:39;;;;;;;;;;;;;;;3.27;100.00;99359.50;5005596;28;19933;-83
2023/11/24 10:00:08;;;;;;;;;;;;;;;3.22;100.00;99352.22;5025279;28;20322;-82
2023/11/24 10:02:36;;;;;;;;;;;;;;;3.20;100.00;99367.84;5008800;28;19937;-82
2023/11/24 10:05:06;;;;;;;;;;;;;;;3.21;100.00;99366.72;5020059;28;19933;-82
2023/11/24 10:07:35;;;;;;;;;;;;;;;3.15;100.00;99346.28;4999111;28;19936;-84
2023/11/24 10:10:04;;;;;;;;;;;;;;;3.22;100.00;99346.84;5006739;28;19933;-83
2023/11/24 10:12:38;;;;;;;;;;;;;;;3.14;100.00;99347.34;5014011;28;19933;-83
2023/11/24 10:15:07;;;;;;;;;;;;;;;3.10;100.00;99340.88;5010837;28;20378;-83
2023/11/24 10:17:36;;;;;;;;;;;;;;;3.11;100.00;99339.00;5011784;28;19933;-82
2023/11/24 10:20:11;;;;;;;;;;;;;;;3.14;100.00;99355.41;5014428;28;19936;-82
2023/11/24 10:22:44;;;;;;;;;;;;;;;3.03;100.00;99343.81;5009874;28;19933;-83
2023/11/24 10:25:19;;;;;;;;;;;;;;;2.79;100.00;99335.41;5018854;28;19956;-83
2023/11/24 10:27:49;;;;;;;;;;;;;;;2.74;100.00;99329.19;5010697;28;19944;-83
2023/11/24 10:30:18;;;;;;;;;;;;;;;2.67;100.00;99308.72;5009375;28;19940;-82
2023/11/24 10:32:47;;;;;;;;;;;;;;;2.49;100.00;99299.25;5016281;28;19932;-84
2023/11/24 10:35:20;;;;;;;;;;;;;;;2.47;100.00;99297.88;5014427;28;19933;-83
2023/11/24 10:37:49;;;;;;;;;;;;;;;2.49;100.00;99295.75;4991540;28;21081;-84
2023/11/24 10:40:18;;;;;;;;;;;;;;;2.53;100.00;99294.97;5006408;28;19933;-83
2023/11/24 10:42:54;;;;;;;;;;;;;;;2.83;100.00;99289.97;5013948;28;19940;-84
2023/11/24 10:45:22;;;;;;;;;;;;;;;3.05;100.00;99287.94;5017090;28;19929;-83
2023/11/24 10:48:01;;;;;;;;;;;;;;;3.20;100.00;99279.09;5016548;28;19933;-83
2023/11/24 10:50:29;;;;;;;;;;;;;;;3.09;100.00;99298.16;5013247;28;19952;-83
2023/11/24 10:53:07;;;;;;;;;;;;;;;3.06;100.00;99302.16;5009528;28;19973;-83
2023/11/24 10:55:37;;;;;;;;;;;;;;;3.08;100.00;99300.03;5011725;28;19948;-83
2023/11/24 10:58:13;;;;;;;;;;;;;;;2.91;100.00;99305.59;5009458;28;20016;-82
2023/11/24 11:00:41;;;;;;;;;;;;;;;2.77;100.00;99301.78;5007723;28;19932;-84
2023/11/24 11:03:15;;;;;;;;;;;;;;;2.63;100.00;99282.66;5011913;28;19940;-82
2023/11/24 11:05:58;;;;;;;;;;;;;;;2.62;100.00;99281.84;5011279;28;19944;-84
2023/11/24 11:08:34;;;;;;;;;;;;;;;2.70;100.00;99275.97;5005514;28;20405;-88
2023/11/24 11:11:12;;;;;;;;;;;;;;;2.76;100.00;99276.00;5003318;28;19929;-86
2023/11/24 11:13:47;;;;;;;;;;;;;;;2.79;100.00;99260.16;5005097;28;19944;-82
2023/11/24 11:16:20;;;;;;;;;;;;;;;2.75;100.00;99239.44;5006292;28;19925;-82
2023/11/24 11:18:49;;;;;;;;;;;;;;;2.70;100.00;99257.16;5006934;28;19933;-83
2023/11/24 11:21:35;;;;;;;;;;;;;;;2.68;100.00;99243.19;5011486;28;19932;-86
2023/11/24 11:24:04;;;;;;;;;;;;;;;2.79;100.00;99240.53;5010115;28;19933;-85
2023/11/24 11:26:48;;;;;;;;;;;;;;;2.69;100.00;99242.13;5013196;28;19933;-84
2023/11/24 11:29:19;;;;;;;;;;;;;;;2.65;100.00;99265.22;5006834;28;19952;-83
2023/11/24 11:31:50;;;;;;;;;;;;;;;2.40;100.00;99275.81;5011876;28;19940;-84
2023/11/24 11:34:20;;;;;;;;;;;;;;;2.32;100.00;99232.31;5011332;28;19933;-83
2023/11/24 11:36:51;;;;;;;;;;;;;;;2.26;100.00;99208.38;5010416;28;19933;-85
2023/11/24 11:39:27;;;;;;;;;;;;;;;2.15;100.00;99186.84;4986576;28;19940;-86
2023/11/24 11:41:55;;;;;;;;;;;;;;;2.07;100.00;99197.25;5007081;28;19944;-85
2023/11/24 11:44:33;;;;;;;;;;;;;;;2.40;100.00;99190.69;4999076;28;19934;-85
2023/11/24 11:47:12;;;;;;;;;;;;;;;2.52;100.00;99198.53;5002540;28;20863;-85
2023/11/24 11:49:41;;;;;;;;;;;;;;;2.55;100.00;99192.66;4998323;28;19934;-88
2023/11/24 11:52:11;;;;;;;;;;;;;;;2.55;100.00;99174.66;5019391;28;19940;-87
2023/11/24 11:54:39;;;;;;;;;;;;;;;2.51;100.00;99162.03;4999097;28;19941;-85
2023/11/24 11:57:08;;;;;;;;;;;;;;;2.36;100.00;99168.97;5004407;28;19933;-86
2023/11/24 11:59:37;;;;;;;;;;;;;;;2.40;100.00;99160.38;5001324;28;19936;-87
2023/11/24 12:02:06;;;;;;;;;;;;;;;2.38;100.00;99161.44;5003683;28;19960;-85
2023/11/24 12:04:39;;;;;;;;;;;;;;;2.58;100.00;99154.50;5005382;28;19933;-85
2023/11/24 12:07:10;;;;;;;;;;;;;;;2.68;100.00;99149.19;5002597;28;19932;-87
2023/11/24 12:09:39;;;;;;;;;;;;;;;2.78;100.00;99140.34;5002176;28;19930;-85
2023/11/24 12:12:07;;;;;;;;;;;;;;;2.82;100.00;99133.34;5006618;28;19934;-86
2023/11/24 12:14:38;;;;;;;;;;;;;;;2.97;100.00;99139.81;5003702;28;19932;-85
2023/11/24 12:17:07;;;;;;;;;;;;;;;2.91;100.00;99136.31;5012395;28;19936;-86
2023/11/24 12:19:41;;;;;;;;;;;;;;;2.88;100.00;99147.59;4999290;28;19933;-86
2023/11/24 12:22:10;;;;;;;;;;;;;;;2.98;100.00;99142.22;4999481;28;20416;-86
2023/11/24 12:24:45;;;;;;;;;;;;;;;2.91;100.00;99135.53;5004771;28;19929;-89
2023/11/24 12:27:20;;;;;;;;;;;;;;;3.02;100.00;99132.56;5006542;28;19934;-86
2023/11/24 12:29:51;;;;;;;;;;;;;;;2.97;100.00;99127.19;5001544;28;20654;-85
2023/11/24 12:32:28;;;;;;;;;;;;;;;2.94;100.00;99118.84;5002983;28;19937;-85
2023/11/24 12:34:59;;;;;;;;;;;;;;;3.04;100.00;99125.03;5005655;28;19940;-85
2023/11/24 12:37:32;;;;;;;;;;;;;;;3.09;100.00;99120.75;4998587;28;19933;-86
2023/11/24 12:40:00;;;;;;;;;;;;;;;3.04;100.00;99116.97;4985996;28;19945;-85
2023/11/24 12:42:29;;;;;;;;;;;;;;;2.94;100.00;99117.00;4999959;28;20005;-85
2023/11/24 12:44:58;;;;;;;;;;;;;;;2.92;100.00;99112.97;4996352;28;19933;-84
2023/11/24 12:47:27;;;;;;;;;;;;;;;2.82;100.00;99122.59;4995631;28;19933;-85
2023/11/24 12:50:00;;;;;;;;;;;;;;;2.72;100.00;99125.25;5000593;28;19933;-85
2023/11/24 12:52:34;;;;;;;;;;;;;;;2.70;100.00;99127.44;4996814;28;19940;-86
2023/11/24 12:55:07;;;;;;;;;;;;;;;2.62;100.00;99133.31;5001566;28;19934;-84
2023/11/24 12:57:41;;;;;;;;;;;;;;;2.77;100.00;99117.22;5000053;28;19955;-84
2023/11/24 13:00:13;;;;;;;;;;;;;;;2.85;100.00;99121.28;4998154;28;20393;-84
2023/11/24 13:02:48;;;;;;;;;;;;;;;2.87;100.00;99113.75;4999763;28;19955;-84